createdAt,value
2023-03-29T00:01:00.148Z,5.60
2023-03-29T00:03:27.441Z,5.60
2023-03-29T00:06:03.280Z,5.60
2023-03-29T00:08:31.357Z,5.60
2023-03-29T00:10:59.240Z,5.60
2023-03-29T00:13:26.576Z,5.60
2023-03-29T00:15:53.837Z,5.70
2023-03-29T00:18:20.817Z,5.70
2023-03-29T00:20:54.365Z,5.70
2023-03-29T00:23:22.583Z,5.80
2023-03-29T00:25:49.163Z,5.80
2023-03-29T00:28:15.729Z,5.80
2023-03-29T00:30:42.283Z,5.80
2023-03-29T00:33:08.894Z,5.80
2023-03-29T00:35:37.635Z,5.80
2023-03-29T00:38:06.418Z,5.80
2023-03-29T00:40:33.732Z,5.80
2023-03-29T00:43:00.569Z,5.80
2023-03-29T00:45:30.273Z,5.80
2023-03-29T00:48:00.175Z,5.70
2023-03-29T00:50:30.900Z,5.70
2023-03-29T00:53:12.449Z,5.70
2023-03-29T00:55:43.010Z,5.70
2023-03-29T00:58:12.890Z,5.70
2023-03-29T01:00:47.478Z,5.70
2023-03-29T01:03:14.584Z,5.70
2023-03-29T01:05:44.150Z,5.70
2023-03-29T01:08:21.612Z,5.80
2023-03-29T01:10:51.722Z,5.70
2023-03-29T01:13:20.791Z,5.70
2023-03-29T01:15:47.899Z,5.80
2023-03-29T01:18:14.518Z,5.80
2023-03-29T01:20:48.967Z,5.80
2023-03-29T01:23:30.638Z,5.40
2023-03-29T01:26:04.479Z,5.80
2023-03-29T01:28:33.869Z,5.70
2023-03-29T01:31:00.756Z,5.70
2023-03-29T01:33:30.187Z,5.70
2023-03-29T01:36:00.007Z,5.70
2023-03-29T01:38:32.068Z,5.70
2023-03-29T01:40:58.634Z,5.70
2023-03-29T01:43:31.278Z,5.70
2023-03-29T01:45:58.369Z,5.70
2023-03-29T01:48:40.073Z,5.80
2023-03-29T01:51:13.411Z,5.80
2023-03-29T01:53:49.537Z,5.80
2023-03-29T01:56:17.958Z,5.70
2023-03-29T01:58:46.141Z,5.80
2023-03-29T02:01:17.651Z,5.80
2023-03-29T02:03:46.846Z,5.80
2023-03-29T02:06:15.557Z,5.80
2023-03-29T02:08:42.951Z,5.90
2023-03-29T02:11:09.518Z,5.90
2023-03-29T02:13:36.448Z,5.80
2023-03-29T02:16:08.357Z,5.90
2023-03-29T02:18:35.422Z,5.90
2023-03-29T02:21:02.485Z,5.80
2023-03-29T02:23:35.033Z,5.80
2023-03-29T02:26:03.972Z,5.80
2023-03-29T02:28:31.129Z,5.90
2023-03-29T02:31:04.575Z,5.90
2023-03-29T02:33:37.852Z,5.80
2023-03-29T02:36:07.632Z,5.80
2023-03-29T02:38:34.581Z,5.80
2023-03-29T02:41:01.588Z,5.70
2023-03-29T02:43:28.855Z,5.70
2023-03-29T02:45:56.049Z,5.80
2023-03-29T02:48:24.621Z,5.80
2023-03-29T02:50:53.433Z,5.70
2023-03-29T02:53:23.057Z,5.70
2023-03-29T02:55:49.743Z,5.60
2023-03-29T02:58:17.065Z,5.60
2023-03-29T03:00:47.332Z,5.30
2023-03-29T03:03:15.452Z,5.50
2023-03-29T03:05:42.883Z,5.50
2023-03-29T03:08:09.596Z,5.50
2023-03-29T03:10:36.874Z,5.50
2023-03-29T03:13:03.948Z,5.50
2023-03-29T03:15:31.170Z,5.60
2023-03-29T03:17:57.852Z,5.50
2023-03-29T03:20:24.428Z,5.50
2023-03-29T03:22:51.097Z,5.50
2023-03-29T03:25:20.714Z,5.50
2023-03-29T03:27:48.366Z,5.50
2023-03-29T03:30:16.191Z,5.50
2023-03-29T03:32:44.748Z,5.50
2023-03-29T03:35:11.716Z,5.50
2023-03-29T03:37:39.031Z,5.40
2023-03-29T03:40:06.900Z,5.50
2023-03-29T03:42:33.556Z,5.50
2023-03-29T03:45:00.637Z,5.50
2023-03-29T03:47:27.186Z,5.40
2023-03-29T03:49:53.746Z,5.50
2023-03-29T03:52:20.623Z,5.50
2023-03-29T03:54:48.122Z,5.60
2023-03-29T03:57:14.674Z,5.60
2023-03-29T03:59:41.335Z,5.60
2023-03-29T04:02:08.036Z,5.50
2023-03-29T04:04:34.835Z,5.50
2023-03-29T04:07:04.249Z,5.60
2023-03-29T04:09:31.591Z,5.50
2023-03-29T04:11:59.107Z,5.60
2023-03-29T04:14:26.428Z,5.70
2023-03-29T04:16:53.586Z,5.60
2023-03-29T04:19:20.521Z,5.60
2023-03-29T04:21:49.351Z,5.50
2023-03-29T04:24:17.200Z,5.50
2023-03-29T04:26:44.132Z,5.60
2023-03-29T04:29:11.105Z,5.50
2023-03-29T04:31:37.832Z,5.60
2023-03-29T04:34:04.496Z,5.60
2023-03-29T04:36:31.133Z,5.60
2023-03-29T04:39:01.402Z,5.50
2023-03-29T04:41:28.677Z,5.50
2023-03-29T04:43:56.026Z,5.50
2023-03-29T04:46:27.067Z,5.50
2023-03-29T04:48:54.903Z,5.50
2023-03-29T04:51:22.347Z,5.50
2023-03-29T04:53:51.532Z,5.50
2023-03-29T04:56:18.071Z,5.50
2023-03-29T04:58:45.189Z,5.40
2023-03-29T05:01:11.777Z,5.40
2023-03-29T05:03:38.513Z,5.40
2023-03-29T05:06:07.608Z,5.40
2023-03-29T05:08:35.032Z,5.40
2023-03-29T05:11:02.017Z,5.40
2023-03-29T05:13:28.975Z,5.40
2023-03-29T05:15:57.106Z,5.40
2023-03-29T05:18:23.777Z,5.40
2023-03-29T05:20:51.102Z,5.40
2023-03-29T05:23:17.668Z,5.40
2023-03-29T05:25:44.733Z,5.40
2023-03-29T05:28:11.287Z,5.40
2023-03-29T05:30:38.064Z,5.40
2023-03-29T05:33:05.752Z,5.40
2023-03-29T05:35:33.063Z,5.30
2023-03-29T05:38:00.366Z,5.30
2023-03-29T05:40:27.077Z,5.30
2023-03-29T05:42:53.666Z,5.30
2023-03-29T05:45:20.246Z,5.30
2023-03-29T05:47:46.869Z,5.30
2023-03-29T05:50:13.695Z,5.30
2023-03-29T05:52:41.232Z,5.20
2023-03-29T05:55:08.222Z,5.20
2023-03-29T05:57:38.010Z,5.40
2023-03-29T06:00:14.673Z,5.40
2023-03-29T06:02:41.911Z,5.50
2023-03-29T06:05:09.580Z,5.60
2023-03-29T06:07:38.226Z,5.60
2023-03-29T06:10:05.666Z,5.60
2023-03-29T06:12:32.658Z,5.70
2023-03-29T06:15:04.792Z,5.80
2023-03-29T06:17:33.612Z,5.70
2023-03-29T06:20:00.736Z,5.70
2023-03-29T06:22:27.829Z,5.70
2023-03-29T06:24:54.613Z,5.70
2023-03-29T06:27:21.596Z,5.80
2023-03-29T06:29:48.468Z,5.70
2023-03-29T06:32:15.001Z,5.80
2023-03-29T06:34:41.581Z,5.80
2023-03-29T06:37:08.429Z,5.90
2023-03-29T06:39:34.958Z,5.90
2023-03-29T06:42:10.063Z,6.00
2023-03-29T06:44:43.613Z,6.20
2023-03-29T06:47:10.182Z,6.40
2023-03-29T06:49:36.758Z,6.50
2023-03-29T06:52:03.522Z,6.60
2023-03-29T06:54:30.947Z,6.60
2023-03-29T06:56:57.891Z,6.70
2023-03-29T06:59:24.733Z,6.80
2023-03-29T07:01:53.819Z,6.80
2023-03-29T07:04:20.705Z,6.90
2023-03-29T07:06:48.716Z,6.90
2023-03-29T07:09:18.363Z,6.90
2023-03-29T07:11:46.602Z,6.90
2023-03-29T07:14:13.177Z,6.90
2023-03-29T07:16:39.787Z,6.90
2023-03-29T07:19:06.445Z,7.10
2023-03-29T07:21:34.904Z,7.40
2023-03-29T07:24:04.604Z,7.40
2023-03-29T07:26:32.203Z,7.50
2023-03-29T07:28:58.851Z,7.60
2023-03-29T07:31:25.606Z,7.80
2023-03-29T07:33:53.358Z,8.00
2023-03-29T07:36:20.260Z,8.20
2023-03-29T07:38:48.089Z,8.50
2023-03-29T07:41:14.649Z,8.60
2023-03-29T07:43:41.810Z,8.90
2023-03-29T07:46:10.130Z,9.10
2023-03-29T07:48:39.803Z,9.40
2023-03-29T07:51:07.406Z,9.30
2023-03-29T07:53:34.091Z,9.40
2023-03-29T07:56:00.712Z,9.60
2023-03-29T07:58:27.448Z,9.90
2023-03-29T08:00:54.087Z,10.50
2023-03-29T08:03:20.800Z,11.00
2023-03-29T08:05:47.487Z,11.40
2023-03-29T08:08:14.269Z,11.50
2023-03-29T08:10:42.477Z,11.60
2023-03-29T08:13:09.581Z,11.80
2023-03-29T08:15:38.432Z,11.90
2023-03-29T08:18:05.901Z,12.00
2023-03-29T08:20:32.704Z,12.10
2023-03-29T08:22:59.316Z,12.20
2023-03-29T08:25:25.863Z,12.60
2023-03-29T08:27:53.006Z,13.00
2023-03-29T08:30:19.650Z,13.60
2023-03-29T08:32:49.294Z,14.40
2023-03-29T08:35:17.609Z,15.60
2023-03-29T08:37:44.123Z,16.40
2023-03-29T08:40:16.256Z,17.40
2023-03-29T08:42:49.283Z,18.20
2023-03-29T08:45:23.145Z,18.80
2023-03-29T08:48:08.689Z,19.20
2023-03-29T08:50:37.959Z,19.80
2023-03-29T08:53:06.651Z,21.30
2023-03-29T08:55:36.885Z,21.50
2023-03-29T08:58:07.466Z,21.60
2023-03-29T09:00:44.306Z,21.50
2023-03-29T09:03:16.124Z,20.70
2023-03-29T09:05:47.454Z,20.40
2023-03-29T09:08:16.994Z,21.00
2023-03-29T09:11:04.032Z,21.50
2023-03-29T09:13:49.607Z,22.30
2023-03-29T09:16:22.609Z,23.40
2023-03-29T09:18:56.236Z,24.80
2023-03-29T09:21:27.635Z,25.30
2023-03-29T09:24:10.067Z,24.80
2023-03-29T09:26:52.825Z,24.30
2023-03-29T09:29:19.395Z,23.20
2023-03-29T09:31:47.366Z,22.80
2023-03-29T09:34:15.919Z,23.00
2023-03-29T09:36:49.344Z,24.20
2023-03-29T09:39:16.689Z,24.30
2023-03-29T09:41:48.032Z,23.80
2023-03-29T09:44:29.810Z,22.70
2023-03-29T09:47:02.791Z,22.40
2023-03-29T09:49:32.177Z,22.10
2023-03-29T09:52:02.907Z,21.50
2023-03-29T09:54:29.489Z,20.90
2023-03-29T09:56:56.151Z,21.00
2023-03-29T09:59:22.772Z,20.60
2023-03-29T10:01:49.442Z,20.40
2023-03-29T10:04:16.809Z,20.20
2023-03-29T10:06:45.393Z,19.50
2023-03-29T10:09:15.477Z,19.50
2023-03-29T10:11:47.614Z,19.50
2023-03-29T10:14:16.921Z,19.40
2023-03-29T10:16:47.917Z,19.30
2023-03-29T10:19:16.221Z,19.60
2023-03-29T10:21:42.747Z,19.20
2023-03-29T10:24:09.572Z,19.50
2023-03-29T10:26:37.152Z,19.50
2023-03-29T10:29:04.919Z,19.60
2023-03-29T10:31:33.065Z,19.10
2023-03-29T10:34:02.856Z,19.00
2023-03-29T10:36:29.549Z,18.90
2023-03-29T10:39:01.686Z,18.80
2023-03-29T10:41:30.527Z,18.80
2023-03-29T10:43:57.216Z,18.50
2023-03-29T10:46:28.455Z,18.60
2023-03-29T10:48:59.493Z,18.80
2023-03-29T10:51:30.033Z,18.60
2023-03-29T10:53:59.723Z,18.60
2023-03-29T10:56:27.064Z,18.60
2023-03-29T10:59:14.336Z,18.60
2023-03-29T11:01:59.632Z,18.70
2023-03-29T11:04:45.253Z,18.80
2023-03-29T11:07:14.833Z,19.00
2023-03-29T11:10:00.344Z,19.40
2023-03-29T11:12:30.096Z,19.80
2023-03-29T11:15:03.121Z,20.20
2023-03-29T11:17:45.795Z,21.00
2023-03-29T11:20:18.270Z,20.90
2023-03-29T11:22:51.509Z,21.10
2023-03-29T11:25:29.605Z,21.10
2023-03-29T11:28:00.881Z,21.80
2023-03-29T11:30:42.112Z,21.80
2023-03-29T11:33:14.738Z,21.60
2023-03-29T11:35:45.523Z,21.40
2023-03-29T11:38:32.297Z,21.80
2023-03-29T11:41:08.242Z,21.80
2023-03-29T11:43:55.063Z,22.90
2023-03-29T11:46:26.276Z,23.60
2023-03-29T11:48:59.070Z,24.10
2023-03-29T11:51:27.766Z,24.00
2023-03-29T11:53:59.026Z,23.70
2023-03-29T11:56:29.281Z,23.50
2023-03-29T11:58:58.998Z,23.10
2023-03-29T12:01:31.640Z,22.80
2023-03-29T12:04:22.864Z,23.00
2023-03-29T12:07:01.724Z,22.60
2023-03-29T12:09:35.976Z,22.20
2023-03-29T12:12:13.911Z,21.70
2023-03-29T12:14:43.318Z,21.50
2023-03-29T12:17:12.529Z,21.40
2023-03-29T12:19:46.598Z,21.10
2023-03-29T12:22:13.147Z,21.10
2023-03-29T12:24:41.708Z,21.20
2023-03-29T12:27:27.084Z,21.40
2023-03-29T12:30:13.949Z,21.30
2023-03-29T12:32:40.707Z,21.40
2023-03-29T12:35:27.588Z,21.40
2023-03-29T12:38:12.090Z,21.10
2023-03-29T12:40:45.974Z,20.80
2023-03-29T12:43:19.814Z,20.80
2023-03-29T12:45:50.976Z,20.60
2023-03-29T12:48:20.205Z,20.30
2023-03-29T12:50:49.913Z,20.30
2023-03-29T12:53:22.861Z,20.00
2023-03-29T12:55:51.091Z,19.70
2023-03-29T12:58:41.906Z,19.50
2023-03-29T13:01:08.637Z,19.00
2023-03-29T13:03:35.277Z,18.80
2023-03-29T13:06:03.697Z,18.90
2023-03-29T13:08:43.978Z,19.00
2023-03-29T13:11:12.194Z,19.30
2023-03-29T13:13:40.536Z,19.70
2023-03-29T13:16:18.338Z,20.10
2023-03-29T13:19:02.773Z,20.10
2023-03-29T13:21:29.287Z,20.60
2023-03-29T13:23:55.924Z,20.90
2023-03-29T13:26:26.937Z,20.80
2023-03-29T13:28:58.295Z,20.50
2023-03-29T13:31:44.314Z,20.10
2023-03-29T13:34:30.332Z,19.70
2023-03-29T13:37:08.837Z,19.90
2023-03-29T13:39:40.739Z,20.30
2023-03-29T13:42:19.727Z,20.40
2023-03-29T13:44:48.980Z,20.10
2023-03-29T13:47:16.448Z,20.10
2023-03-29T13:49:45.389Z,20.10
2023-03-29T13:52:16.363Z,20.10
2023-03-29T13:54:57.984Z,20.10
2023-03-29T13:57:43.230Z,20.00
2023-03-29T14:00:11.955Z,20.00
2023-03-29T14:02:44.434Z,20.00
2023-03-29T14:05:13.793Z,19.80
2023-03-29T14:07:42.906Z,19.70
2023-03-29T14:10:14.133Z,19.90
2023-03-29T14:12:42.128Z,20.20
2023-03-29T14:15:18.318Z,20.40
2023-03-29T14:17:44.904Z,20.50
2023-03-29T14:20:14.867Z,20.40
2023-03-29T14:22:42.133Z,20.20
2023-03-29T14:25:17.216Z,19.90
2023-03-29T14:27:43.902Z,19.50
2023-03-29T14:30:27.558Z,19.40
2023-03-29T14:32:54.673Z,18.90
2023-03-29T14:35:27.138Z,18.70
2023-03-29T14:37:53.693Z,18.50
2023-03-29T14:40:20.495Z,18.40
2023-03-29T14:42:48.382Z,18.40
2023-03-29T14:45:16.231Z,18.50
2023-03-29T14:47:44.611Z,18.40
2023-03-29T14:50:18.691Z,18.30
2023-03-29T14:52:48.303Z,18.20
2023-03-29T14:55:16.351Z,18.40
2023-03-29T14:57:43.672Z,18.70
2023-03-29T15:00:23.055Z,19.00
2023-03-29T15:02:50.925Z,19.00
2023-03-29T15:05:35.848Z,19.40
2023-03-29T15:08:03.204Z,19.70
2023-03-29T15:10:36.966Z,19.70
2023-03-29T15:13:04.306Z,19.80
2023-03-29T15:15:32.169Z,19.90
2023-03-29T15:17:58.850Z,19.90
2023-03-29T15:20:30.032Z,19.90
2023-03-29T15:23:20.625Z,19.80
2023-03-29T15:25:49.121Z,19.60
2023-03-29T15:28:26.428Z,19.60
2023-03-29T15:31:07.383Z,19.20
2023-03-29T15:33:36.587Z,19.10
2023-03-29T15:36:04.745Z,18.90
2023-03-29T15:38:42.633Z,18.90
2023-03-29T15:41:10.587Z,18.80
2023-03-29T15:43:37.445Z,18.80
2023-03-29T15:46:04.433Z,18.70
2023-03-29T15:48:33.466Z,18.80
2023-03-29T15:51:03.177Z,18.80
2023-03-29T15:53:32.240Z,18.70
2023-03-29T15:56:00.013Z,18.60
2023-03-29T15:58:27.956Z,18.60
2023-03-29T16:00:59.116Z,18.40
2023-03-29T16:03:27.267Z,18.30
2023-03-29T16:05:56.759Z,18.20
2023-03-29T16:08:24.016Z,18.20
2023-03-29T16:10:50.927Z,18.00
2023-03-29T16:13:17.735Z,17.90
2023-03-29T16:15:44.375Z,17.70
2023-03-29T16:18:10.960Z,17.60
2023-03-29T16:20:39.729Z,17.50
2023-03-29T16:23:09.683Z,17.20
2023-03-29T16:25:38.299Z,17.20
2023-03-29T16:28:05.632Z,17.10
2023-03-29T16:30:32.511Z,17.10
2023-03-29T16:32:59.205Z,17.10
2023-03-29T16:35:27.740Z,17.00
2023-03-29T16:37:54.356Z,16.80
2023-03-29T16:40:21.138Z,16.80
2023-03-29T16:42:47.713Z,16.70
2023-03-29T16:45:14.493Z,16.60
2023-03-29T16:47:44.637Z,16.50
2023-03-29T16:50:15.258Z,16.50
2023-03-29T16:52:42.284Z,16.40
2023-03-29T16:55:12.039Z,16.30
2023-03-29T16:57:39.806Z,16.30
2023-03-29T17:00:15.731Z,16.20
2023-03-29T17:02:43.421Z,16.30
2023-03-29T17:05:10.890Z,16.00
2023-03-29T17:07:37.476Z,16.10
2023-03-29T17:10:07.137Z,15.80
2023-03-29T17:12:33.966Z,15.80
2023-03-29T17:15:01.037Z,15.70
2023-03-29T17:17:27.874Z,15.50
2023-03-29T17:19:55.117Z,15.50
2023-03-29T17:22:21.780Z,15.50
2023-03-29T17:24:48.340Z,15.40
2023-03-29T17:27:15.052Z,15.40
2023-03-29T17:29:41.580Z,15.30
2023-03-29T17:32:08.252Z,15.30
2023-03-29T17:34:35.037Z,15.10
2023-03-29T17:37:03.646Z,15.00
2023-03-29T17:39:30.726Z,15.00
2023-03-29T17:41:57.465Z,15.00
2023-03-29T17:44:24.620Z,14.80
2023-03-29T17:46:51.358Z,14.90
2023-03-29T17:49:17.980Z,14.80
2023-03-29T17:51:44.712Z,14.70
2023-03-29T17:54:12.068Z,14.70
2023-03-29T17:56:40.907Z,14.60
2023-03-29T17:59:07.509Z,14.60
2023-03-29T18:01:35.285Z,14.60
2023-03-29T18:04:03.010Z,14.50
2023-03-29T18:06:29.643Z,14.50
2023-03-29T18:08:56.752Z,14.50
2023-03-29T18:11:24.618Z,14.40
2023-03-29T18:13:51.989Z,14.40
2023-03-29T18:16:19.531Z,14.30
2023-03-29T18:18:46.810Z,14.30
2023-03-29T18:21:14.382Z,14.30
2023-03-29T18:23:44.056Z,14.30
2023-03-29T18:26:10.888Z,14.20
2023-03-29T18:28:37.611Z,14.10
2023-03-29T18:31:05.056Z,14.10
2023-03-29T18:33:35.195Z,14.10
2023-03-29T18:36:04.701Z,14.00
2023-03-29T18:38:35.305Z,14.00
2023-03-29T18:41:02.881Z,14.00
2023-03-29T18:43:30.193Z,13.90
2023-03-29T18:45:57.429Z,14.10
2023-03-29T18:48:24.155Z,13.90
2023-03-29T18:50:52.147Z,13.80
2023-03-29T18:53:19.431Z,13.80
2023-03-29T18:55:46.043Z,13.80
2023-03-29T18:58:13.305Z,13.80
2023-03-29T19:00:40.613Z,13.70
2023-03-29T19:03:07.721Z,13.70
2023-03-29T19:05:38.508Z,13.70
2023-03-29T19:08:05.897Z,13.70
2023-03-29T19:10:36.710Z,13.70
2023-03-29T19:13:03.368Z,13.70
2023-03-29T19:15:30.627Z,13.60
2023-03-29T19:17:57.815Z,13.60
2023-03-29T19:20:25.454Z,13.70
2023-03-29T19:22:52.470Z,13.60
2023-03-29T19:25:19.211Z,13.70
2023-03-29T19:27:46.405Z,13.60
2023-03-29T19:30:13.352Z,13.60
2023-03-29T19:32:40.017Z,13.70
2023-03-29T19:35:09.669Z,13.60
2023-03-29T19:37:36.487Z,13.60
2023-03-29T19:40:06.317Z,13.60
2023-03-29T19:42:38.772Z,13.60
2023-03-29T19:45:06.469Z,13.60
2023-03-29T19:47:33.225Z,13.60
2023-03-29T19:50:00.406Z,13.60
2023-03-29T19:52:27.981Z,13.70
2023-03-29T19:54:55.867Z,13.60
2023-03-29T19:57:22.988Z,13.60
2023-03-29T19:59:49.630Z,13.60
2023-03-29T20:02:16.769Z,13.60
2023-03-29T20:04:43.708Z,13.60
2023-03-29T20:07:10.395Z,13.50
2023-03-29T20:09:37.676Z,13.50
2023-03-29T20:12:04.885Z,13.50
2023-03-29T20:14:31.570Z,13.50
2023-03-29T20:16:58.615Z,13.50
2023-03-29T20:19:26.910Z,13.50
2023-03-29T20:21:57.726Z,13.50
2023-03-29T20:24:24.709Z,13.40
2023-03-29T20:26:51.661Z,13.30
2023-03-29T20:29:18.245Z,13.30
2023-03-29T20:31:45.128Z,13.30
2023-03-29T20:34:11.907Z,13.20
2023-03-29T20:36:40.448Z,13.30
2023-03-29T20:39:08.755Z,13.20
2023-03-29T20:41:38.347Z,13.30
2023-03-29T20:44:05.848Z,13.40
2023-03-29T20:46:35.733Z,13.20
2023-03-29T20:49:04.543Z,13.20
2023-03-29T20:51:32.065Z,13.20
2023-03-29T20:54:02.790Z,13.20
2023-03-29T20:56:30.140Z,13.20
2023-03-29T20:58:57.180Z,13.10
2023-03-29T21:01:24.206Z,13.10
2023-03-29T21:03:51.066Z,13.10
2023-03-29T21:06:19.262Z,13.10
2023-03-29T21:08:51.051Z,13.10
2023-03-29T21:11:18.242Z,13.10
2023-03-29T21:13:45.227Z,13.10
2023-03-29T21:16:12.923Z,13.10
2023-03-29T21:18:40.266Z,13.00
2023-03-29T21:21:10.095Z,13.00
2023-03-29T21:23:36.717Z,13.00
2023-03-29T21:26:09.360Z,13.00
2023-03-29T21:28:37.524Z,13.00
2023-03-29T21:31:07.528Z,12.90
2023-03-29T21:33:34.756Z,12.90
2023-03-29T21:36:02.012Z,12.90
2023-03-29T21:38:28.709Z,12.90
2023-03-29T21:40:55.352Z,13.00
2023-03-29T21:43:21.867Z,13.00
2023-03-29T21:45:49.474Z,12.90
2023-03-29T21:48:16.522Z,12.90
2023-03-29T21:50:43.432Z,12.90
2023-03-29T21:53:10.058Z,12.90
2023-03-29T21:55:36.628Z,12.80
2023-03-29T21:58:04.159Z,12.80
2023-03-29T22:00:31.125Z,12.80
2023-03-29T22:02:57.820Z,12.80
2023-03-29T22:05:26.099Z,12.70
2023-03-29T22:07:52.844Z,12.70
2023-03-29T22:10:22.839Z,12.80
2023-03-29T22:12:50.718Z,12.70
2023-03-29T22:15:19.106Z,12.70
2023-03-29T22:17:45.834Z,12.60
2023-03-29T22:20:13.342Z,12.60
2023-03-29T22:22:43.715Z,12.60
2023-03-29T22:25:11.477Z,12.60
2023-03-29T22:27:38.273Z,12.50
2023-03-29T22:30:05.651Z,12.50
2023-03-29T22:32:32.531Z,12.50
2023-03-29T22:34:59.130Z,12.50
2023-03-29T22:37:25.714Z,12.50
2023-03-29T22:39:52.399Z,12.50
2023-03-29T22:42:19.023Z,12.50
2023-03-29T22:44:45.706Z,12.40
2023-03-29T22:47:12.676Z,12.40
2023-03-29T22:49:39.296Z,12.50
2023-03-29T22:52:06.131Z,12.40
2023-03-29T22:54:32.676Z,12.40
2023-03-29T22:56:59.743Z,12.40
2023-03-29T22:59:26.876Z,12.30
2023-03-29T23:01:53.539Z,12.30
2023-03-29T23:04:20.254Z,12.30
2023-03-29T23:06:46.849Z,12.30
2023-03-29T23:09:15.831Z,12.30
2023-03-29T23:11:43.068Z,12.30
2023-03-29T23:14:09.842Z,12.30
2023-03-29T23:16:37.016Z,12.30
2023-03-29T23:19:03.538Z,12.30
2023-03-29T23:21:30.188Z,12.30
2023-03-29T23:23:56.782Z,12.20
2023-03-29T23:26:23.729Z,12.20
2023-03-29T23:28:51.498Z,12.40
2023-03-29T23:31:18.491Z,12.30
2023-03-29T23:33:45.421Z,12.30
2023-03-29T23:36:17.084Z,12.30
2023-03-29T23:38:44.383Z,12.30
2023-03-29T23:41:12.609Z,12.30
2023-03-29T23:43:40.482Z,12.30
2023-03-29T23:46:15.371Z,12.30
2023-03-29T23:48:46.177Z,12.20
2023-03-29T23:51:13.138Z,12.30
2023-03-29T23:53:39.824Z,12.20
2023-03-29T23:56:07.526Z,12.20
2023-03-29T23:58:35.246Z,12.20
